Jorge Duque

Скаут - Millonarios
20 Ноя 2027
Суббота
Продолжить

Характер

Адаптивность (19) Амбиции (2) Скандальность (6) Верность (6) Стрессоустойчивость (4) Профессионализм (14) Благородство (8) Темперамент (4)

Профиль

Стиль управления Демократичный
Лицензия Континентальная B
Решительность 7
Управление людьми 10
Мотивация 14
Дисциплина 13
Удовлетворённость
100%
Усталость
0%
Должность Скаут
Зарплата 50.0K в нед.
Контракт 14.03.2029

Производительность

Поведение Хорошее
Эффективность тренировок
46%
Развитие игроков
70%
Профилактика травм
50%
Тактическая реализация
60%

Недавние события

Участвовал в селекционном совещании 7 дн. назад
Рекомендовал трансферную цель 7 дн. назад
Участвовал в селекционном совещании 14 дн. назад
Рекомендовал трансферную цель 14 дн. назад
Участвовал в селекционном совещании 21 дн. назад
Рекомендовал трансферную цель 21 дн. назад
Участвовал в селекционном совещании 28 дн. назад
Рекомендовал трансферную цель 28 дн. назад

Текущее наблюдение

152
Игрок Клуб Статус Способность Уверенность Наблюдений Последнее наблюдение Последний голос
Bryan Caicedo Leones Активный 91 / 101 62% 1 03.06.2027 За
Carlos Vicente Udinese Активный 151 / 149 40% 2 31.05.2027 -
Demarai Gray Birmingham Активный 142 / 124 40% 3 30.05.2027 -
Patrick Roberts Birmingham Активный 138 / 129 40% 1 30.05.2027 -
Brooke Norton-Cuffy Hull City Активный 150 / 143 40% 6 29.05.2027 -
Óscar Mingueza Crystal Palace Активный 162 / 152 40% 2 29.05.2027 -
Alfie Doughty Millwall Активный 128 / 124 40% 3 28.05.2027 -
Oliver Skipp Leicester City Активный 136 / 138 40% 2 28.05.2027 -
Bobby Thomas Coventry City Активный 120 / 136 40% 3 28.05.2027 -
Cameron Pring Bristol City Активный 136 / 123 40% 2 28.05.2027 -
Shea Charles Southampton Активный 126 / 137 40% 5 26.05.2027 -
Tim Iroegbunam Hull City Активный 146 / 134 40% 3 24.05.2027 -
Adam Wharton Crystal Palace Активный 156 / 161 40% 4 24.05.2027 -
Nobel Mendy Hull City Активный 130 / 131 40% 2 22.05.2027 -
Jacques Ekomié Wrexham Активный 142 / 131 40% 3 21.05.2027 -
Yerry Mina Cagliari Активный 149 / 138 40% 2 20.05.2027 -
Tristan Crama Millwall Активный 131 / 118 40% 1 20.05.2027 -
Tariq Lamptey Queens Park Rangers Активный 151 / 126 40% 2 19.05.2027 -
Mathias Jørgensen Blackburn Rovers Активный 130 / 123 40% 1 17.05.2027 -
Callum Brittain Middlesbrough Активный 117 / 126 40% 2 14.05.2027 -
Adrien Truffert Bournemouth Активный 152 / 143 40% 3 14.05.2027 -
Daniel Muñoz Nottingham Forest Активный 136 / 155 40% 3 12.05.2027 -
Max Bird Birmingham Активный 141 / 125 40% 3 12.05.2027 -
Juanlu Bournemouth Активный 158 / 156 40% 1 11.05.2027 -
Ryan Sessegnon Fulham Активный 148 / 152 40% 3 10.05.2027 -
Florentino Luís Ipswich Town Активный 132 / 141 40% 1 08.05.2027 -
Yehor Yarmoliuk Brentford Активный 140 / 150 40% 1 08.05.2027 -
Isma Ruiz Córdoba Активный 133 / 131 40% 5 06.05.2027 -
Harry Clarke Preston Активный 126 / 131 40% 3 06.05.2027 -
Nordi Mukiele Sunderland Активный 158 / 146 40% 4 05.05.2027 -
Ramón Terrats Getafe Активный 156 / 139 40% 5 04.05.2027 -
Tom Fellows Southampton Активный 120 / 139 40% 1 03.05.2027 -
Manor Solomon West Ham United Активный 148 / 132 40% 1 03.05.2027 -
Max Johnston Derby County Активный 143 / 129 40% 3 02.05.2027 -
Ferdi Kadıoğlu Brighton Активный 139 / 143 40% 1 01.05.2027 -
Julio Enciso Ipswich Town Активный 138 / 140 40% 2 26.04.2027 -
Zeidane Inoussa Swansea City Активный 132 / 129 40% 1 26.04.2027 -
Edoardo Bove Watford Активный 117 / 131 40% 1 22.04.2027 -
Joe Aribo Southampton Активный 133 / 121 40% 1 22.04.2027 -
Rodrigo Gomes Wolverhampton Активный 148 / 146 40% 1 22.04.2027 -
Tyler Adams Bournemouth Активный 142 / 153 40% 4 20.04.2027 -
Odilon Kossounou Atalanta Активный 145 / 150 40% 1 18.04.2027 -
Josen Escobar Athletic Bilbao Активный 106 / 131 40% 2 14.04.2027 -
Marcus Edwards Burnley Активный 144 / 141 40% 1 12.04.2027 -
Sorba Thomas Stoke City Активный 123 / 130 40% 1 11.04.2027 -
Anton Stach Leeds United Активный 157 / 140 40% 2 10.04.2027 -
Jordan Lotomba Bloemfontein Celtic Активный 137 / 121 40% 1 10.04.2027 -
Olivier Boscagli Brighton Активный 152 / 149 40% 1 09.04.2027 -
Camilo Durán Bloemfontein Celtic Активный 118 / 120 40% 3 06.04.2027 -
James Garner Everton Активный 157 / 149 40% 2 06.04.2027 -
Koki Saito Queens Park Rangers Активный 142 / 124 40% 1 06.04.2027 -
Ben Chrisene Sheffield Wednesday Активный 118 / 117 40% 1 06.04.2027 -
Saša Lukić Ipswich Town Активный 151 / 142 40% 1 03.04.2027 -
Alex Scott Bournemouth Активный 139 / 153 40% 2 31.03.2027 -
Ross McCrorie Bristol City Активный 141 / 130 40% 1 31.03.2027 -
Léo Scienza Southampton Активный 144 / 129 40% 1 30.03.2027 -
Ilias Chair Queens Park Rangers Активный 116 / 127 40% 1 30.03.2027 -
Quinten Timber Crystal Palace Активный 156 / 153 40% 2 28.03.2027 -
Nacho Vidal Lechia Активный 139 / 132 40% 1 28.03.2027 -
Jarrad Branthwaite Everton Активный 154 / 148 40% 1 26.03.2027 -
Juan Larios Piast Активный 107 / 119 40% 1 24.03.2027 -
Nathan Collins Brentford Активный 134 / 150 40% 2 23.03.2027 -
Helinho Toluca Активный 119 / 130 40% 1 22.03.2027 -
Davinson Sánchez Galatasaray Активный 156 / 149 40% 2 19.03.2027 -
Gustavo Puerta Olympiacos Активный 143 / 150 40% 1 19.03.2027 -
Milan van Ewijk Coventry City Активный 122 / 126 40% 1 17.03.2027 -
Dango Ouattara Brentford Активный 133 / 153 40% 2 03.03.2027 -
Kiernan Dewsbury-Hall Everton Активный 155 / 150 40% 1 03.03.2027 -
Ethan Galbraith Swansea City Активный 121 / 129 40% 1 01.03.2027 -
Thiago Almada Fiorentina Активный 146 / 150 40% 1 26.02.2027 -
Rafael Leão Galatasaray Активный 172 / 155 40% 1 26.02.2027 -
Jhon Palacios Orenburg Активный 128 / 122 40% 1 24.02.2027 -
Oussama Idrissi Ferencvaros Активный 148 / 139 40% 2 23.02.2027 -
Tyrell Malacia Derby County Активный 126 / 138 40% 4 19.02.2027 -
Welington Southampton Активный 139 / 126 40% 2 10.02.2027 -
Anel Ahmedhodžić Burnley Активный 133 / 134 40% 1 04.02.2027 -
Yankuba Minteh Brighton Активный 153 / 151 40% 1 21.01.2027 -
Jherson Mosquera Newell's Old Boys Активный 128 / 120 40% 2 20.01.2027 -
Jacob Greaves Ipswich Town Активный 135 / 134 40% 1 19.01.2027 -
Pablo Solari Spartak Moscow Активный 138 / 128 40% 1 18.01.2027 -
Damián Fernández Defensa y Justicia Активный 120 / 121 40% 2 16.01.2027 -
Alexis Steimbach Gimnasia La Plata Активный 126 / 119 40% 2 15.01.2027 -
Rodrigo González Aldosivi Активный 120 / 116 40% 1 14.01.2027 -
Enzo Copetti Rosario Central Активный 117 / 124 40% 1 09.01.2027 -
Musab Al-Juwayr Al-Qadisiyah Активный 113 / 132 40% 2 08.01.2027 -
Rafael Santos Borré River Plate Активный 141 / 135 40% 1 08.01.2027 -
Edwuin Cetré Estudiantes Активный 126 / 125 40% 1 05.01.2027 -
Francisco Álvarez Argentinos Juniors Активный 122 / 123 40% 1 28.12.2026 -
Déiber Caicedo Junior Активный 110 / 112 58% 1 14.12.2026 -
Gastón Hernández San Lorenzo Активный 119 / 129 40% 2 29.11.2026 -
Luciano Jachfe Nueva Chicago Активный 106 / 115 40% 1 27.11.2026 -
César Pérez Defensa y Justicia Активный 129 / 120 40% 2 26.11.2026 -
Mauro Silveira Junior Активный 114 / 118 40% 6 25.11.2026 -
Vicente Poggi Godoy Cruz Активный 127 / 127 40% 2 25.11.2026 -
Franco Ibarra Rosario Central Активный 121 / 128 40% 2 25.11.2026 -
Enzo Vázquez Central Norte Активный 100 / 105 40% 1 25.11.2026 -
Juan-José Perea Zurich Активный 120 / 116 40% 1 25.11.2026 -
Tiago Palacios Estudiantes Активный 126 / 129 40% 1 23.11.2026 -
Julián Palacios Unión de Santa Fe Активный 109 / 112 40% 1 23.11.2026 -
Juan Moreno La Luz Активный 119 / 111 40% 3 22.11.2026 -
Nahuel Galardi Maipú Активный 116 / 109 40% 2 22.11.2026 -
Nicolás Tripichio San Lorenzo Активный 133 / 127 40% 1 21.11.2026 -
Gastón Benedetti Estudiantes Активный 114 / 121 40% 1 18.11.2026 -
Agustín Lastra Estudiantes Активный 102 / 110 40% 2 16.11.2026 -
Marcos López San Martín Активный 134 / 133 40% 1 14.11.2026 -
Lucas Carrizo Newell's Old Boys Активный 117 / 127 40% 2 13.11.2026 -
Joaquín García Vélez Активный 137 / 126 40% 3 12.11.2026 -
Ignacio Vázquez Platense Активный 137 / 125 40% 2 11.11.2026 -
Lucas Souto Defensa y Justicia Активный 115 / 125 40% 2 09.11.2026 -
Eduard Atuesta Orlando City Активный 118 / 126 40% 1 09.11.2026 -
Leandro Lozano Boca Juniors Активный 115 / 128 40% 2 07.11.2026 -
Alexis Cuello San Lorenzo Активный 123 / 125 40% 1 07.11.2026 -
Sasha Marcich Lanús Активный 115 / 127 40% 1 05.11.2026 -
Felipe Peña Biafore Lanús Активный 133 / 130 40% 1 05.11.2026 -
Alex Luna Instituto Активный 122 / 131 40% 1 05.11.2026 -
Nicolás Sumavil Platense Активный 113 / 115 40% 3 04.11.2026 -
Esteban Glellel Quilmes Активный 117 / 114 40% 2 29.10.2026 -
Carl Rushworth Coventry City Активный 122 / 137 40% 2 28.10.2026 -
Franco Watson Lanús Активный 129 / 126 40% 1 27.10.2026 -
Sebastián Meza Huracán Активный 124 / 124 40% 1 27.10.2026 -
Ignacio Schor O'Higgins Активный 107 / 121 40% 1 21.10.2026 -
Brian Rodríguez Club America Активный 119 / 126 40% 1 20.10.2026 -
Franco Pardo Santos Laguna Активный 112 / 118 40% 2 18.10.2026 -
Luis Rodriguez Guadalajara Активный 135 / 131 40% 1 18.10.2026 -
Alan Lescano Argentinos Juniors Активный 120 / 126 40% 2 17.10.2026 -
Lautaro Amadé Defensa y Justicia Активный 121 / 115 40% 2 13.10.2026 -
Augusto Bottini Almirante Brown Активный 101 / 97 40% 1 09.10.2026 -
Mauro Casoli Talleres Активный 112 / 103 40% 1 09.10.2026 -
Aarón Molinas Defensa y Justicia Активный 126 / 123 40% 1 08.10.2026 -
Franco Romero Toluca Активный 115 / 129 40% 1 06.10.2026 -
Cristopher Varela Deportivo La Guaira Активный 112 / 113 40% 1 04.10.2026 -
Juan Pablo Barinaga Patronato Активный 103 / 106 40% 1 02.10.2026 -
Pedro González Cerro Largo Активный 107 / 108 40% 3 28.09.2026 -
Fernando Tapia Club America Активный 144 / 127 40% 1 28.09.2026 -
Kevin Palacios Santos Laguna Активный 101 / 117 40% 1 28.09.2026 -
Santiago Toloza O'Higgins Активный 134 / 126 40% 1 28.09.2026 -
Diego Romero Universitario Активный 129 / 125 40% 3 25.09.2026 -
Diego Enríquez Sporting Cristal Активный 125 / 123 40% 4 25.09.2026 -
Héctor Holguín Morelia Активный 123 / 107 40% 2 19.09.2026 -
Matías Dufour Sportivo Trinidense Активный 115 / 111 40% 2 18.09.2026 -
Jesús Orozco Chiquete Cruz Azul Активный 138 / 136 40% 2 16.09.2026 -
Willer Ditta Cruz Azul Активный 126 / 142 40% 2 15.09.2026 -
Sergio Barreto Pachuca Активный 148 / 128 40% 1 15.09.2026 -
Miguel Silva Carabobo Активный 116 / 103 40% 2 13.09.2026 -
Tomás Ahumada Audax Italiano Активный 113 / 108 40% 1 12.09.2026 -
Pablo Lara Pumas UNAM Активный 114 / 124 40% 2 11.09.2026 -
Weibmar Asprilla Independiente Medellin Активный 118 / 114 40% 1 04.09.2026 -
Rodrigo Morínigo Libertad Активный 107 / 118 40% 1 27.08.2026 -
Aldo Pérez Guarani Активный 109 / 112 40% 1 17.08.2026 -
Alan Cervantes Club America Активный 125 / 130 40% 1 11.08.2026 -
Adonis Frías Atlas Активный 123 / 127 40% 1 10.08.2026 -
Álvaro Angulo Pumas UNAM Активный 115 / 129 40% 1 02.08.2026 -